NCAR-RAP Real-Time Weather Data

Output produced by METARs form (17 December 2018  15:13 UTC)
found at http://weather.rap.ucar.edu/surface/
 
RJFT 171200Z VRB02KT 9999 FEW060 BKN080 06/00 Q1018
RJFT 171100Z 22004KT 160V260 CAVOK 06/M00 Q1018
RJFT 171000Z 24003KT 9999 FEW035 SCT070 07/00 Q1018
RJFT 170900Z 26005KT 9999 FEW040 SCT060 08/M01 Q1017
RJFT 170800Z 27005KT 240V300 9999 FEW040 SCT060 09/M00 Q1017
RJFT 170700Z 29007KT 260V320 9999 FEW040 SCT060 10/01 Q1016
RJFT 170600Z 30009KT 9999 FEW040 SCT060 10/00 Q1016
RJFT 170500Z 30009KT 260V340 9999 FEW035 SCT045 BKN060 10/00 Q1016
RJFT 170400Z 29010KT 260V330 9999 FEW030 SCT040 11/03 Q1016
RJFT 170300Z 31009KT 270V350 9999 FEW025 SCT060 11/04 Q1016
RJFT 170200Z 24003KT 180V320 9999 FEW035 SCT045 BKN060 09/06 Q1017
RJFT 170100Z 04005KT 9999 FEW020 SCT060 BKN080 08/06 Q1017
RJFT 170000Z VRB01KT 9999 FEW015 BKN060 08/07 Q1017
RJFT 162300Z 29004KT 250V320 9999 VCSH FEW002 SCT025 BKN050 08/08 Q1017
RJFT 162208Z 24003KT 7000 FEW001 BKN050 08/08 Q1016 RMK 1ST001 7SC050 A3000
RJFT 162200Z VRB02KT 3500 R07/P1800N BR BCFG FEW001 SCT015 BKN050 08/08 Q1016
RJFT 162110Z VRB01KT 8000 FEW001 SCT035 BKN050 07/07 Q1015 RMK 1ST001 3CU035 7SC050 A2999
RJFT 161200Z VRB01KT 1200 R07/1300VP1800D -SHRA BR BCFG BKN001 BKN002 09/09 Q1015
RJFT 161145Z VRB01KT 1200 R07/1100VP1800U -SHRA BR BCFG BKN001 BKN002 09/09 Q1015 RMK 5ST001 7ST002 A2999 FG ALL QUAD
RJFT 161140Z VRB01KT 0900 R07/0800VP1800U -SHRA FG VV001 09/09 Q1015 RMK A2999
RJFT 161136Z VRB02KT 0800 R07/0650V1700U -SHRA FG VV001 09/09 Q1015 RMK A2999
RJFT 161135Z VRB02KT 0800 R07/0600V1100U -SHRA FG VV001 09/09 Q1015 RMK A2999
RJFT 161128Z VRB01KT 0800 R07/0450V0750N -SHRA FG VV001 09/09 Q1015 RMK A2999
RJFT 161124Z VRB02KT 0800 R07/0450V0650N -SHRA FG VV001 09/09 Q1015 RMK A2999
RJFT 161107Z 33004KT 280V010 0800 R07/0650V0900D SHRA FG VV001 09/09 Q1015 RMK A2999
RJFT 161102Z 32004KT 290V360 0800 R07/0800V1100D SHRA FG VV001 09/09 Q1015 RMK A2999
RJFT 161100Z 32004KT 290V360 0800 R07/0800V1300D SHRA FG VV001 09/09 Q1015
RJFT 161047Z 33008KT 0800 R07/0600V1600U SHRA FG VV001 09/09 Q1015 RMK A2999
RJFT 161045Z 33008KT 0800 R07/0600V1600U SHRA FG VV001 09/09 Q1015 RMK A2999
RJFT 161044Z 33007KT 0800 R07/0600V1600U SHRA FG VV001 09/09 Q1015 RMK A2999
RJFT 161039Z 33007KT 0600 R07/0600V0900D SHRA FG SCT001 BKN004 BKN020 09/09 Q1015 RMK 3ST001 5ST004 7CU020 A2999
RJFT 161031Z 33007KT 0600 R07/0400V0900U -SHRA FG SCT001 BKN004 BKN020 09/09 Q1015 RMK 3ST001 5ST004 7CU020 A2999
RJFT 161025Z 32007KT 300V360 0300 R07/0400VP1800D -SHRA FG VV001 09/09 Q1015 RMK A2998
RJFT 161023Z 32007KT 300V360 0500 R07/0400VP1800D -SHRA FG FEW001 BKN003 BKN020 09/09 Q1015 RMK 2ST001 5ST003 7CU020 A2998
RJFT 161022Z 33006KT 0500 R07/0450VP1800D -SHRA FG FEW001 BKN003 BKN020 09/09 Q1015 RMK 2ST001 5ST003 7CU020 A2998
RJFT 161021Z 33006KT 0800 R07/0450VP1800D -SHRA FG FEW001 SCT003 BKN020 10/10 Q1015 RMK 1ST001 4ST003 7CU020 A2998
RJFT 161019Z 32005KT 0800 R07/0600VP1800D -SHRA FG FEW001 SCT003 BKN020 10/10 Q1015 RMK 1ST001 4ST003 7CU020 A2998
RJFT 161018Z 32005KT 0800 R07/0650VP1800D -SHRA FG FEW001 SCT003 BKN030 10/10 Q1015 RMK 1ST001 4ST003 7CU030 A2998
RJFT 161000Z 04004KT 9999 -SHRA FEW001 BKN030 10/10 Q1015
RJFT 160900Z 04005KT 9999 -SHRA FEW001 SCT025 BKN035 11/11 Q1015
RJFT 160800Z 07005KT 9999 FEW001 SCT025 BKN030 10/10 Q1016
RJFT 160700Z 06005KT 9999 -SHRA FEW001 SCT025 BKN030 10/10 Q1017
RJFT 160600Z 06004KT 5000 -SHRA BR FEW001 SCT025 BKN035 09/09 Q1017
RJFT 160530Z 07005KT 5000 -SHRA BR FEW001 SCT030 BKN040 08/08 Q1018 RMK 1ST001 4CU030 6CU040 A3007
RJFT 160510Z 09004KT 1500 R07/1700U -SHRA BR BCFG FEW001 BKN025 BKN030 08/08 Q1018 RMK 2ST001 5CU025 6CU030 A3008 FG ALL QUAD
RJFT 160507Z 10003KT 0900 R07/1000VP1800U -SHRA FG FEW001 BKN025 BKN030 08/08 Q1018 RMK 2ST001 5CU025 6CU030 A3008
RJFT 160503Z 11003KT 0900 R07/0600V1700U -SHRA FG SCT001 BKN020 BKN030 08/08 Q1018 RMK 3ST001 5CU020 6CU030 A3008
RJFT 160502Z 11003KT 080V140 0900 R07/0600V1600U -SHRA FG SCT001 BKN020 BKN030 07/07 Q1018 RMK 3ST001 5CU020 6CU030 A3008
RJFT 160500Z 12003KT 0800 R07/0500V1600U -SHRA FG SCT001 BKN020 BKN030 07/07 Q1018
RJFT 160449Z 13004KT 0500 R07/0350VP1800D -SHRA FG FEW001 SCT025 BKN035 08/08 Q1018 RMK 2ST001 4CU025 6CU035 A3009
RJFT 160448Z 13004KT 0500 R07/0350VP1800D -SHRA FG FEW001 SCT025 BKN035 08/08 Q1018 RMK 2ST001 4CU025 6CU035 A3009
RJFT 160447Z 13003KT 0500 R07/0350VP1800D -SHRA FG FEW001 SCT025 BKN035 08/08 Q1018 RMK 2ST001 4CU025 6CU035 A3009
RJFT 160446Z 13003KT 0500 R07/0350VP1800D -SHRA FG FEW001 SCT025 BKN035 08/08 Q1019 RMK 2ST001 4CU025 6CU035 A3009
RJFT 160437Z VRB02KT 0800 R07/P1800N -SHRA FG FEW001 SCT025 BKN035 08/08 Q1019 RMK 2ST001 4CU025 6CU035 A3010
RJFT 160421Z 35005KT 2000 R07/1600VP1800U -SHRA BR BCFG FEW001 SCT025 BKN035 08/08 Q1019 RMK 2ST001 4CU025 6CU035 A3010 FG ALL QUAD
RJFT 160404Z 36005KT 330V040 0800 R07/1500VP1800D -RA FG SCT001 SCT025 BKN050 08/08 Q1019 RMK 3ST001 4CU025 5SC050 A3010 2000E-S
RJFT 160400Z 36004KT 330V040 2500 R07/P1800N -RA FG FEW001 SCT025 BKN050 08/08 Q1019
RJFT 160325Z 04005KT 3000 -RA BR BCFG FEW001 SCT025 BKN050 07/07 Q1020 RMK 2ST001 4CU025 5SC050 A3013 FG ALL QUAD
RJFT 160315Z 05005KT 1500 R07/1800U -RA BR BCFG FEW001 BKN025 BKN070 07/07 Q1020 RMK 2ST001 5CU025 7AS070 A3013 FG ALL QUAD
RJFT 160300Z 09003KT 0800 R07/P1800N -RA FG SCT001 BKN002 BKN025 07/07 Q1020
RJFT 160243Z 09003KT 070V140 0800 R07/1600VP1800N -RA FG FEW001 SCT003 BKN025 06/06 Q1021 RMK 2ST001 3ST003 5CU025 A3016
RJFT 160220Z 34003KT 300V040 0500 R07/1300VP1800D -RA FG SCT001 BKN005 BKN050 06/06 Q1022 RMK 3ST001 5ST005 6SC050 A3018
RJFT 160211Z 32003KT 0600 R07/P1800N -RA FG FEW001 SCT030 BKN050 06/06 Q1022 RMK 2ST001 3CU030 5SC050 A3018 2000SE-SW
RJFT 160207Z VRB02KT 4000 R07/P1800N -RA BR BCFG FEW001 SCT030 BKN050 07/07 Q1022 RMK 1ST001 3CU030 5SC050 A3019 1000W-N FG ALL QUAD
RJFT 160200Z VRB02KT 6000 R07/P1800N -RA PRFG FEW001 SCT030 BKN050 07/07 Q1022
RJFT 160100Z 05004KT 6000 -RA FEW005 SCT030 BKN050 06/06 Q1023
RJFT 160000Z 25005KT 9999 -RA FEW001 SCT035 BKN050 06/06 Q1023
RJFT 151200Z 06006KT CAVOK 04/02 Q1027
RJFT 151100Z 07006KT CAVOK 03/03 Q1028
RJFT 151000Z 10003KT CAVOK 06/03 Q1028
RJFT 150900Z 18003KT 9999 FEW040 06/02 Q1028
RJFT 150800Z 20003KT 9999 FEW040 08/01 Q1027
RJFT 150700Z 22004KT 170V280 9999 FEW040 11/01 Q1027
RJFT 150600Z 21005KT 9999 FEW040 12/01 Q1027
RJFT 150500Z 20006KT 170V260 9999 FEW040 12/M00 Q1027
RJFT 150400Z VRB04KT 9999 FEW040 12/00 Q1028